Terminal Aerodrome Forecast
Issued by NWS Mt. Holly, NJ

Home | Current Version | Previous Version | Text Only | Print | Product List | Glossary On
Versions: 1 2 3 4 5 6 7 8 9 10 11 12 13
442
FTUS41 KPHI 301721
TAFILG
TAF
KILG 301721Z 3018/3118 VRB04KT P6SM SCT050
      TEMPO 3019/3021 BKN050
     FM302300 14005KT P6SM SKC
     FM310300 VRB02KT P6SM SKC
     FM311500 18005KT P6SM SKC=

USA.gov is the U.S. government's official web portal to all federal, state and local government web resources and services.